createdAt,value
2023-03-19T00:01:51.881Z,97971.47
2023-03-19T00:04:37.281Z,97957.47
2023-03-19T00:07:22.735Z,97971.44
2023-03-19T00:10:08.667Z,97981.78
2023-03-19T00:12:54.032Z,97984.34
2023-03-19T00:15:39.453Z,97979.88
2023-03-19T00:18:24.729Z,97986.16
2023-03-19T00:21:09.983Z,97986.34
2023-03-19T00:23:55.477Z,97990.22
2023-03-19T00:26:40.840Z,97989.81
2023-03-19T00:29:26.065Z,97982.16
2023-03-19T00:32:11.681Z,97977.69
2023-03-19T00:34:56.903Z,97976.03
2023-03-19T00:37:42.470Z,97958.94
2023-03-19T00:40:27.726Z,97978.25
2023-03-19T00:43:13.034Z,97987.31
2023-03-19T00:45:58.580Z,97979.19
2023-03-19T00:48:43.784Z,97980.81
2023-03-19T00:51:29.263Z,97978.19
2023-03-19T00:54:14.534Z,97988.72
2023-03-19T00:57:00.162Z,97968.59
2023-03-19T00:59:46.016Z,97973.06
2023-03-19T01:02:31.822Z,97982.00
2023-03-19T01:05:17.048Z,97965.91
2023-03-19T01:08:02.578Z,97980.81
2023-03-19T01:10:49.068Z,97962.91
2023-03-19T01:13:34.320Z,97985.31
2023-03-19T01:16:19.532Z,97990.38
2023-03-19T01:19:04.822Z,97990.19
2023-03-19T01:21:50.578Z,97989.19
2023-03-19T01:24:39.287Z,97996.28
2023-03-19T01:27:24.784Z,97994.06
2023-03-19T01:30:11.288Z,97989.75
2023-03-19T01:33:15.736Z,97983.94
2023-03-19T01:36:36.416Z,97984.25
2023-03-19T01:39:24.546Z,97973.50
2023-03-19T01:42:10.166Z,97971.81
2023-03-19T01:45:04.057Z,97990.59
2023-03-19T01:48:24.841Z,97942.03
2023-03-19T01:51:25.156Z,97973.50
2023-03-19T01:54:35.888Z,97968.91
2023-03-19T01:57:47.383Z,97972.59
2023-03-19T02:00:50.584Z,97965.28
2023-03-19T02:03:38.561Z,97967.13
2023-03-19T02:06:50.551Z,97974.59
2023-03-19T02:09:37.526Z,97982.25
2023-03-19T02:12:22.698Z,97974.75
2023-03-19T02:15:08.679Z,97972.50
2023-03-19T02:17:54.105Z,97967.63
2023-03-19T02:20:50.896Z,97963.94
2023-03-19T02:23:35.970Z,97967.63
2023-03-19T02:26:30.629Z,97975.22
2023-03-19T02:29:20.775Z,97977.56
2023-03-19T02:32:06.673Z,97980.13
2023-03-19T02:34:53.951Z,97984.19
2023-03-19T02:37:39.418Z,97986.72
2023-03-19T02:40:29.118Z,97991.22
2023-03-19T02:43:14.501Z,97990.38
2023-03-19T02:46:01.476Z,97979.03
2023-03-19T02:48:47.310Z,97982.50
2023-03-19T02:51:32.553Z,97987.09
2023-03-19T02:54:17.797Z,97976.97
2023-03-19T02:57:03.023Z,97987.44
2023-03-19T02:59:48.643Z,97987.88
2023-03-19T03:02:34.058Z,97982.56
2023-03-19T03:05:19.179Z,97957.44
2023-03-19T03:08:05.582Z,97981.81
2023-03-19T03:10:50.771Z,97984.44
2023-03-19T03:13:36.122Z,97989.88
2023-03-19T03:16:21.619Z,97989.16
2023-03-19T03:19:07.340Z,98000.34
2023-03-19T03:21:53.493Z,97996.72
2023-03-19T03:24:39.909Z,97985.66
2023-03-19T03:27:25.112Z,97994.97
2023-03-19T03:30:12.217Z,97990.28
2023-03-19T03:32:57.579Z,98004.66
2023-03-19T03:35:43.388Z,97946.50
2023-03-19T03:38:29.079Z,98004.66
2023-03-19T03:41:15.299Z,97974.38
2023-03-19T03:44:00.829Z,97997.59
2023-03-19T03:46:46.205Z,98000.59
2023-03-19T03:49:31.634Z,98000.34
2023-03-19T03:52:17.048Z,97991.19
2023-03-19T03:55:02.440Z,97993.34
2023-03-19T03:57:48.193Z,97995.41
2023-03-19T04:00:34.379Z,98005.78
2023-03-19T04:03:20.080Z,97995.78
2023-03-19T04:06:05.763Z,97994.72
2023-03-19T04:08:51.126Z,97997.13
2023-03-19T04:11:36.934Z,97999.16
2023-03-19T04:14:22.440Z,98002.41
2023-03-19T04:17:08.236Z,97998.78
2023-03-19T04:19:53.641Z,98016.56
2023-03-19T04:22:39.327Z,98008.78
2023-03-19T04:25:25.028Z,98010.03
2023-03-19T04:28:10.454Z,98005.59
2023-03-19T04:31:04.084Z,98010.50
2023-03-19T04:33:51.658Z,97995.81
2023-03-19T04:36:38.415Z,98024.75
2023-03-19T04:39:23.981Z,98014.59
2023-03-19T04:42:11.150Z,98014.59
2023-03-19T04:45:04.410Z,98019.03
2023-03-19T04:47:50.125Z,98050.56
2023-03-19T04:50:36.047Z,98022.97
2023-03-19T04:53:21.596Z,98023.44
2023-03-19T04:56:07.739Z,98024.34
2023-03-19T04:58:54.054Z,98014.59
2023-03-19T05:01:39.244Z,97953.56
2023-03-19T05:04:26.851Z,98024.06
2023-03-19T05:07:17.969Z,98012.41
2023-03-19T05:10:03.988Z,97995.63
2023-03-19T05:12:49.716Z,97954.03
2023-03-19T05:15:35.638Z,98027.34
2023-03-19T05:18:25.239Z,98033.81
2023-03-19T05:21:13.214Z,98028.81
2023-03-19T05:23:59.103Z,98026.38
2023-03-19T05:26:44.937Z,98029.78
2023-03-19T05:29:48.991Z,98025.91
2023-03-19T05:32:59.072Z,97969.69
2023-03-19T05:36:03.964Z,98045.81
2023-03-19T05:39:04.609Z,98061.44
2023-03-19T05:41:53.751Z,98056.19
2023-03-19T05:44:44.336Z,98047.72
2023-03-19T05:47:55.902Z,98049.81
2023-03-19T05:50:41.567Z,97981.44
2023-03-19T05:53:38.631Z,97955.53
2023-03-19T05:56:46.690Z,97984.81
2023-03-19T05:59:52.514Z,98054.56
2023-03-19T06:02:57.916Z,98054.19
2023-03-19T06:06:01.739Z,97980.03
2023-03-19T06:08:54.714Z,98057.16
2023-03-19T06:11:44.161Z,98064.59
2023-03-19T06:14:48.075Z,98066.38
2023-03-19T06:17:53.800Z,98071.13
2023-03-19T06:20:39.285Z,98064.78
2023-03-19T06:23:24.650Z,98068.50
2023-03-19T06:26:09.719Z,98040.63
2023-03-19T06:29:06.514Z,98072.56
2023-03-19T06:31:53.020Z,98073.59
2023-03-19T06:34:55.954Z,98074.69
2023-03-19T06:37:41.602Z,98069.53
2023-03-19T06:40:26.926Z,98088.13
2023-03-19T06:43:12.110Z,98088.84
2023-03-19T06:45:57.431Z,98089.78
2023-03-19T06:48:42.766Z,98077.97
2023-03-19T06:51:28.013Z,98095.50
2023-03-19T06:54:14.502Z,98097.06
2023-03-19T06:57:00.052Z,98087.19
2023-03-19T06:59:45.231Z,98070.97
2023-03-19T07:02:30.421Z,98102.97
2023-03-19T07:05:15.706Z,98107.59
2023-03-19T07:08:01.266Z,98097.34
2023-03-19T07:10:46.988Z,98093.16
2023-03-19T07:13:34.234Z,98038.94
2023-03-19T07:16:19.910Z,98114.34
2023-03-19T07:19:05.051Z,98111.59
2023-03-19T07:21:50.252Z,98064.19
2023-03-19T07:24:35.777Z,98124.00
2023-03-19T07:27:21.325Z,98125.06
2023-03-19T07:30:07.453Z,98119.19
2023-03-19T07:32:52.755Z,98121.56
2023-03-19T07:35:37.974Z,98123.31
2023-03-19T07:38:23.197Z,98133.38
2023-03-19T07:41:08.458Z,98132.22
2023-03-19T07:43:53.765Z,98132.06
2023-03-19T07:46:39.176Z,98133.50
2023-03-19T07:49:24.542Z,98130.69
2023-03-19T07:52:10.245Z,98136.25
2023-03-19T07:54:55.608Z,98073.31
2023-03-19T07:57:40.758Z,98146.75
2023-03-19T08:00:26.263Z,98132.59
2023-03-19T08:03:13.971Z,98134.63
2023-03-19T08:05:59.168Z,98138.09
2023-03-19T08:08:45.027Z,98090.44
2023-03-19T08:11:30.577Z,98137.56
2023-03-19T08:14:16.207Z,98143.03
2023-03-19T08:17:01.315Z,98143.03
2023-03-19T08:19:47.284Z,98147.00
2023-03-19T08:22:32.895Z,98146.66
2023-03-19T08:25:18.365Z,98145.66
2023-03-19T08:28:03.530Z,98099.56
2023-03-19T08:30:48.807Z,98147.78
2023-03-19T08:33:33.982Z,98153.53
2023-03-19T08:36:19.438Z,98154.22
2023-03-19T08:39:04.526Z,98153.72
2023-03-19T08:41:49.882Z,98142.75
2023-03-19T08:44:35.247Z,98151.34
2023-03-19T08:47:20.971Z,98105.66
2023-03-19T08:50:07.326Z,98155.38
2023-03-19T08:52:52.840Z,98156.63
2023-03-19T08:55:38.259Z,98161.09
2023-03-19T08:58:24.657Z,98161.31
2023-03-19T09:01:13.011Z,98154.75
2023-03-19T09:03:58.517Z,98164.16
2023-03-19T09:06:44.332Z,98165.38
2023-03-19T09:09:29.778Z,98160.66
2023-03-19T09:12:16.673Z,98164.72
2023-03-19T09:15:02.199Z,98166.38
2023-03-19T09:17:47.580Z,98164.72
2023-03-19T09:20:32.769Z,98166.34
2023-03-19T09:23:18.397Z,98170.13
2023-03-19T09:26:04.139Z,98177.03
2023-03-19T09:28:49.456Z,98169.44
2023-03-19T09:31:35.125Z,98178.00
2023-03-19T09:34:20.404Z,98174.66
2023-03-19T09:37:05.672Z,98175.00
2023-03-19T09:39:51.039Z,98174.94
2023-03-19T09:42:51.980Z,98176.41
2023-03-19T09:45:37.887Z,98178.81
2023-03-19T09:48:39.381Z,98188.94
2023-03-19T09:51:43.546Z,98192.75
2023-03-19T09:54:50.744Z,98187.97
2023-03-19T09:57:37.217Z,98181.63
2023-03-19T10:00:27.226Z,98127.91
2023-03-19T10:03:21.489Z,98180.69
2023-03-19T10:06:07.140Z,98178.56
2023-03-19T10:09:15.904Z,98160.72
2023-03-19T10:12:29.809Z,98185.16
2023-03-19T10:15:18.783Z,98179.44
2023-03-19T10:18:15.947Z,98183.13
2023-03-19T10:21:09.719Z,98169.22
2023-03-19T10:23:57.884Z,98181.38
2023-03-19T10:26:45.444Z,98184.66
2023-03-19T10:29:31.627Z,98180.38
2023-03-19T10:32:41.701Z,98188.25
2023-03-19T10:35:41.272Z,98181.31
2023-03-19T10:38:27.414Z,98178.38
2023-03-19T10:41:45.359Z,98172.34
2023-03-19T10:44:48.533Z,98172.91
2023-03-19T10:47:39.026Z,98174.59
2023-03-19T10:50:32.550Z,98128.56
2023-03-19T10:53:27.392Z,98174.91
2023-03-19T10:56:24.844Z,98156.38
2023-03-19T10:59:31.245Z,98174.84
2023-03-19T11:02:23.475Z,98175.34
2023-03-19T11:05:24.176Z,98187.22
2023-03-19T11:08:35.027Z,98176.28
2023-03-19T11:11:35.631Z,98131.00
2023-03-19T11:14:34.620Z,98187.97
2023-03-19T11:17:26.476Z,98179.47
2023-03-19T11:20:24.147Z,98173.69
2023-03-19T11:23:16.073Z,98177.69
2023-03-19T11:26:01.543Z,98155.75
2023-03-19T11:28:51.546Z,98177.72
2023-03-19T11:31:47.599Z,98174.88
2023-03-19T11:34:53.726Z,98174.59
2023-03-19T11:37:54.539Z,98171.13
2023-03-19T11:40:45.032Z,98163.56
2023-03-19T11:43:32.794Z,98162.53
2023-03-19T11:46:32.499Z,98167.63
2023-03-19T11:49:30.527Z,98174.91
2023-03-19T11:52:36.949Z,98170.34
2023-03-19T11:55:33.590Z,98169.91
2023-03-19T11:58:49.427Z,98164.78
2023-03-19T12:01:51.243Z,98120.03
2023-03-19T12:05:05.523Z,98158.06
2023-03-19T12:08:11.037Z,98068.22
2023-03-19T12:11:18.457Z,98162.88
2023-03-19T12:14:27.009Z,98148.44
2023-03-19T12:17:21.010Z,98148.09
2023-03-19T12:20:24.682Z,98147.47
2023-03-19T12:23:30.849Z,98136.75
2023-03-19T12:26:26.008Z,98140.94
2023-03-19T12:29:30.861Z,98137.13
2023-03-19T12:32:25.506Z,98140.56
2023-03-19T12:35:16.961Z,98138.59
2023-03-19T12:38:17.260Z,98127.84
2023-03-19T12:41:10.305Z,98135.47
2023-03-19T12:44:03.652Z,98129.44
2023-03-19T12:47:08.992Z,98126.19
2023-03-19T12:50:07.334Z,98124.81
2023-03-19T12:52:58.223Z,98117.63
2023-03-19T12:55:52.481Z,98118.44
2023-03-19T12:58:49.554Z,98094.13
2023-03-19T13:01:48.745Z,98102.00
2023-03-19T13:04:40.118Z,98112.75
2023-03-19T13:07:46.594Z,98113.56
2023-03-19T13:10:32.697Z,98051.50
2023-03-19T13:13:40.307Z,98113.41
2023-03-19T13:16:46.426Z,98105.75
2023-03-19T13:19:45.698Z,98086.00
2023-03-19T13:22:35.891Z,98106.38
2023-03-19T13:25:27.305Z,98065.22
2023-03-19T13:28:22.557Z,98092.00
2023-03-19T13:31:19.427Z,98093.69
2023-03-19T13:34:17.438Z,98095.06
2023-03-19T13:37:29.368Z,98081.38
2023-03-19T13:40:42.112Z,98081.00
2023-03-19T13:43:30.489Z,98078.81
2023-03-19T13:46:16.159Z,98086.22
2023-03-19T13:49:22.941Z,98083.34
2023-03-19T13:52:11.327Z,98087.09
2023-03-19T13:55:25.507Z,98079.16
2023-03-19T13:58:11.077Z,98076.16
2023-03-19T14:00:58.659Z,98073.97
2023-03-19T14:04:04.046Z,98077.56
2023-03-19T14:06:53.099Z,98059.13
2023-03-19T14:10:04.669Z,98095.97
2023-03-19T14:12:50.112Z,98032.03
2023-03-19T14:15:38.984Z,98098.34
2023-03-19T14:18:25.440Z,98091.13
2023-03-19T14:21:31.846Z,98087.81
2023-03-19T14:24:56.854Z,98102.66
2023-03-19T14:27:59.381Z,98103.19
2023-03-19T14:30:47.890Z,98122.22
2023-03-19T14:33:44.047Z,98144.38
2023-03-19T14:36:30.680Z,98170.56
2023-03-19T14:39:32.140Z,98152.16
2023-03-19T14:42:27.066Z,98138.28
2023-03-19T14:45:48.646Z,98188.38
2023-03-19T14:49:06.633Z,98172.06
2023-03-19T14:51:57.623Z,98168.34
2023-03-19T14:54:51.149Z,98165.13
2023-03-19T14:57:36.595Z,98160.50
2023-03-19T15:00:21.843Z,98155.88
2023-03-19T15:03:19.785Z,98152.34
2023-03-19T15:06:07.889Z,98143.13
2023-03-19T15:08:53.068Z,98136.94
2023-03-19T15:11:54.680Z,98140.41
2023-03-19T15:15:06.667Z,98138.81
2023-03-19T15:18:03.782Z,98089.59
2023-03-19T15:20:54.215Z,98143.47
2023-03-19T15:23:41.667Z,98140.31
2023-03-19T15:26:36.587Z,98139.09
2023-03-19T15:29:37.756Z,98141.56
2023-03-19T15:33:07.854Z,98143.19
2023-03-19T15:35:43.019Z,98135.03
2023-03-19T15:38:33.251Z,98144.19
2023-03-19T15:41:20.070Z,98102.22
2023-03-19T15:44:11.028Z,98140.84
2023-03-19T15:46:57.872Z,98142.81
2023-03-19T15:49:49.833Z,98137.38
2023-03-19T15:52:40.444Z,98133.63
2023-03-19T15:55:26.604Z,98134.63
2023-03-19T15:58:17.442Z,98140.59
2023-03-19T16:01:07.731Z,98140.88
2023-03-19T16:04:03.790Z,98139.75
2023-03-19T16:06:49.979Z,98135.75
2023-03-19T16:09:35.222Z,98142.28
2023-03-19T16:12:40.753Z,98146.56
2023-03-19T16:15:45.946Z,98152.47
2023-03-19T16:19:02.077Z,98143.28
2023-03-19T16:21:48.911Z,98142.13
2023-03-19T16:24:36.220Z,98145.94
2023-03-19T16:27:38.620Z,98142.28
2023-03-19T16:30:28.153Z,98138.53
2023-03-19T16:33:14.869Z,98109.50
2023-03-19T16:35:59.986Z,98154.44
2023-03-19T16:39:10.972Z,98154.06
2023-03-19T16:42:08.620Z,98154.47
2023-03-19T16:44:54.094Z,98131.53
2023-03-19T16:47:39.582Z,98160.41
2023-03-19T16:50:31.274Z,98161.50
2023-03-19T16:53:25.464Z,98168.84
2023-03-19T16:56:14.424Z,98173.38
2023-03-19T16:59:01.734Z,98172.44
2023-03-19T17:01:47.375Z,98173.56
2023-03-19T17:04:32.836Z,98176.91
2023-03-19T17:07:18.047Z,98183.50
2023-03-19T17:10:03.328Z,98179.94
2023-03-19T17:12:52.084Z,98189.13
2023-03-19T17:15:40.726Z,98189.00
2023-03-19T17:18:29.328Z,98193.94
2023-03-19T17:21:33.313Z,98198.47
2023-03-19T17:24:25.881Z,98202.44
2023-03-19T17:27:11.311Z,98210.41
2023-03-19T17:29:56.684Z,98210.78
2023-03-19T17:32:46.918Z,98217.31
2023-03-19T17:35:32.833Z,98215.88
2023-03-19T17:38:19.272Z,98221.16
2023-03-19T17:41:18.183Z,98223.41
2023-03-19T17:44:06.467Z,98224.81
2023-03-19T17:46:57.404Z,98225.44
2023-03-19T17:49:42.868Z,98236.84
2023-03-19T17:52:28.898Z,98238.06
2023-03-19T17:55:23.242Z,98227.22
2023-03-19T17:58:18.569Z,98251.88
2023-03-19T18:01:03.905Z,98233.59
2023-03-19T18:03:51.055Z,98238.06
2023-03-19T18:06:45.442Z,98200.00
2023-03-19T18:09:30.901Z,98251.28
2023-03-19T18:12:16.380Z,98243.75
2023-03-19T18:15:02.051Z,98256.00
2023-03-19T18:17:56.285Z,98268.41
2023-03-19T18:20:41.936Z,98256.19
2023-03-19T18:23:27.234Z,98257.00
2023-03-19T18:26:12.792Z,98262.09
2023-03-19T18:28:58.055Z,98267.81
2023-03-19T18:31:47.458Z,98274.28
2023-03-19T18:34:32.795Z,98276.34
2023-03-19T18:37:18.458Z,98283.22
2023-03-19T18:40:04.316Z,98283.97
2023-03-19T18:42:49.916Z,98283.59
2023-03-19T18:45:35.527Z,98285.03
2023-03-19T18:48:24.628Z,98288.72
2023-03-19T18:51:11.665Z,98295.25
2023-03-19T18:53:57.422Z,98268.31
2023-03-19T18:56:44.215Z,98298.50
2023-03-19T18:59:32.760Z,98296.25
2023-03-19T19:02:36.337Z,98300.72
2023-03-19T19:05:23.768Z,98302.38
2023-03-19T19:08:18.630Z,98301.72
2023-03-19T19:11:06.830Z,98300.09
2023-03-19T19:13:58.805Z,98302.72
2023-03-19T19:16:44.453Z,98306.41
2023-03-19T19:19:30.123Z,98303.13
2023-03-19T19:22:18.130Z,98309.06
2023-03-19T19:25:03.600Z,98297.44
2023-03-19T19:27:54.422Z,98297.66
2023-03-19T19:30:40.163Z,98300.22
2023-03-19T19:33:27.974Z,98301.19
2023-03-19T19:36:13.612Z,98306.88
2023-03-19T19:38:58.596Z,98283.78
2023-03-19T19:41:44.451Z,98309.50
2023-03-19T19:44:29.894Z,98298.41
2023-03-19T19:47:16.362Z,98241.72
2023-03-19T19:50:01.627Z,98316.19
2023-03-19T19:52:47.193Z,98325.75
2023-03-19T19:55:32.756Z,98309.50
2023-03-19T19:58:21.551Z,98321.91
2023-03-19T20:01:15.587Z,98320.09
2023-03-19T20:04:00.950Z,98325.97
2023-03-19T20:06:46.449Z,98252.34
2023-03-19T20:09:31.955Z,98240.84
2023-03-19T20:12:24.701Z,98334.28
2023-03-19T20:15:35.228Z,98333.00
2023-03-19T20:18:23.869Z,98306.22
2023-03-19T20:21:13.403Z,98294.19
2023-03-19T20:23:58.617Z,98346.78
2023-03-19T20:26:44.281Z,98347.41
2023-03-19T20:29:34.483Z,98344.06
2023-03-19T20:32:33.367Z,98345.75
2023-03-19T20:35:26.954Z,98337.78
2023-03-19T20:38:14.086Z,98351.84
2023-03-19T20:40:59.628Z,98343.09
2023-03-19T20:43:44.967Z,98356.94
2023-03-19T20:46:30.489Z,98343.06
2023-03-19T20:49:16.084Z,98351.97
2023-03-19T20:52:01.539Z,98346.28
2023-03-19T20:54:47.028Z,98315.72
2023-03-19T20:57:32.373Z,98357.53
2023-03-19T21:00:21.530Z,98336.41
2023-03-19T21:03:11.116Z,98366.69
2023-03-19T21:06:02.824Z,98375.22
2023-03-19T21:08:50.723Z,98375.28
2023-03-19T21:11:41.229Z,98377.09
2023-03-19T21:14:26.692Z,98382.00
2023-03-19T21:17:12.056Z,98373.72
2023-03-19T21:19:57.193Z,98373.72
2023-03-19T21:22:43.169Z,98380.44
2023-03-19T21:25:31.370Z,98380.44
2023-03-19T21:28:25.547Z,98378.63
2023-03-19T21:31:16.082Z,98354.97
2023-03-19T21:34:01.828Z,98355.81
2023-03-19T21:36:47.335Z,98368.72
2023-03-19T21:39:32.534Z,98375.81
2023-03-19T21:42:20.600Z,98373.56
2023-03-19T21:45:06.390Z,98382.75
2023-03-19T21:47:52.106Z,98360.31
2023-03-19T21:50:37.519Z,98368.25
2023-03-19T21:53:23.525Z,98381.50
2023-03-19T21:56:20.482Z,98333.31
2023-03-19T21:59:14.016Z,98376.44
2023-03-19T22:01:59.893Z,98386.75
2023-03-19T22:04:45.104Z,98384.88
2023-03-19T22:07:30.413Z,98390.13
2023-03-19T22:10:16.272Z,98395.03
2023-03-19T22:13:01.793Z,98393.88
2023-03-19T22:15:49.197Z,98389.75
2023-03-19T22:18:34.776Z,98395.03
2023-03-19T22:21:22.735Z,98401.78
2023-03-19T22:24:08.161Z,98403.84
2023-03-19T22:26:57.446Z,98396.38
2023-03-19T22:29:44.617Z,98399.94
2023-03-19T22:32:30.224Z,98400.59
2023-03-19T22:35:17.593Z,98404.50
2023-03-19T22:38:03.022Z,98394.38
2023-03-19T22:40:51.483Z,98405.53
2023-03-19T22:43:37.962Z,98403.53
2023-03-19T22:46:23.782Z,98379.47
2023-03-19T22:49:15.162Z,98402.53
2023-03-19T22:52:01.220Z,98403.34
2023-03-19T22:54:46.624Z,98412.66
2023-03-19T22:57:31.924Z,98412.03
2023-03-19T23:00:22.553Z,98411.38
2023-03-19T23:03:12.387Z,98348.28
2023-03-19T23:06:01.313Z,98406.69
2023-03-19T23:08:46.685Z,98384.97
2023-03-19T23:11:32.255Z,98407.63
2023-03-19T23:14:28.951Z,98404.72
2023-03-19T23:17:16.521Z,98405.91
2023-03-19T23:20:20.092Z,98343.88
2023-03-19T23:23:05.347Z,98398.38
2023-03-19T23:25:51.392Z,98391.84
2023-03-19T23:28:36.563Z,98399.25
2023-03-19T23:31:22.418Z,98379.81
2023-03-19T23:34:10.437Z,98394.69
2023-03-19T23:36:55.881Z,98391.66
2023-03-19T23:39:41.258Z,98388.63
2023-03-19T23:42:31.604Z,98394.22
2023-03-19T23:45:30.648Z,98380.97
2023-03-19T23:48:25.027Z,98390.59
2023-03-19T23:51:13.386Z,98386.16
2023-03-19T23:53:58.603Z,98296.50
2023-03-19T23:56:44.033Z,98384.13
2023-03-19T23:59:34.055Z,98371.25
